Time;durP1;ratioP1;P1;durP2;ratioP2;P2;SDS_P1;SDS_P2;PMS_P1;PMS_P2;Temp;Humidity;BMP_temperature;BMP_pressure;BME280_temperature;BME280_humidity;BME280_pressure;Samples;Min_cycle;Max_cycle;Signal;HPM_P1;HPM_P2
2022/01/17 00:00:21;;;;;;;4.05;1.60;;;;;;;-5.46;73.89;98236.88;4996871;28;20085;-81
2022/01/17 00:02:50;;;;;;;4.05;1.55;;;;;;;-5.54;73.87;98223.00;5014327;28;20061;-79
2022/01/17 00:05:18;;;;;;;2.23;1.40;;;;;;;-5.45;73.81;98233.53;5014429;28;20058;-80
2022/01/17 00:07:45;;;;;;;5.47;2.00;;;;;;;-5.42;73.99;98233.63;5014523;28;20297;-80
2022/01/17 00:10:12;;;;;;;6.10;1.67;;;;;;;-5.43;74.01;98229.38;5014167;28;20145;-79
2022/01/17 00:12:44;;;;;;;5.85;2.33;;;;;;;-5.47;74.28;98217.31;5013427;28;20141;-80
2022/01/17 00:15:22;;;;;;;6.32;2.42;;;;;;;-5.50;74.24;98190.09;5014549;28;20049;-79
2022/01/17 00:17:56;;;;;;;5.13;1.98;;;;;;;-5.46;74.02;98197.03;5014277;28;20054;-78
2022/01/17 00:20:27;;;;;;;6.70;1.67;;;;;;;-5.51;74.36;98188.34;5013940;28;20053;-81
2022/01/17 00:22:54;;;;;;;4.75;1.85;;;;;;;-5.47;74.31;98191.88;5013822;28;20100;-80
2022/01/17 00:25:21;;;;;;;4.28;1.95;;;;;;;-5.47;74.42;98174.06;5013369;28;20407;-81
2022/01/17 00:27:48;;;;;;;5.07;1.77;;;;;;;-5.55;74.47;98155.94;5013727;28;20054;-80
2022/01/17 00:30:15;;;;;;;5.05;2.00;;;;;;;-5.44;74.51;98166.53;5013637;28;20056;-80
2022/01/17 00:32:42;;;;;;;5.25;1.70;;;;;;;-5.47;74.14;98168.97;5013523;28;20449;-82
2022/01/17 00:35:09;;;;;;;6.03;1.60;;;;;;;-5.45;74.37;98157.19;5013640;28;20061;-79
2022/01/17 00:37:37;;;;;;;5.35;1.77;;;;;;;-5.49;74.32;98145.16;5013252;28;20050;-79
2022/01/17 00:40:05;;;;;;;7.70;1.75;;;;;;;-5.40;74.60;98159.09;5013573;28;20490;-79
2022/01/17 00:42:32;;;;;;;5.82;1.58;;;;;;;-5.45;74.61;98142.78;5013178;28;20096;-78
2022/01/17 00:45:02;;;;;;;4.55;1.38;;;;;;;-5.32;74.42;98148.34;5013278;28;20069;-79
2022/01/17 00:47:29;;;;;;;5.55;1.60;;;;;;;-5.31;74.44;98148.41;5012933;28;20140;-81
2022/01/17 00:49:56;;;;;;;4.82;1.33;;;;;;;-5.23;74.46;98130.88;5013172;28;20056;-79
2022/01/17 00:52:23;;;;;;;4.03;1.80;;;;;;;-5.24;74.00;98119.81;5012320;28;20046;-81
2022/01/17 00:54:50;;;;;;;5.30;1.58;;;;;;;-5.15;74.35;98122.72;5012716;28;20059;-80
2022/01/17 00:57:17;;;;;;;8.10;2.08;;;;;;;-5.12;73.97;98116.84;4995157;28;20054;-79
2022/01/17 00:59:44;;;;;;;4.03;1.70;;;;;;;-5.12;74.39;98116.00;5012451;28;20093;-79
2022/01/17 01:02:11;;;;;;;5.75;1.55;;;;;;;-5.15;73.98;98099.78;5012343;28;20101;-79
2022/01/17 01:04:38;;;;;;;5.55;1.70;;;;;;;-5.24;74.11;98080.78;5012298;28;20062;-78
2022/01/17 01:07:05;;;;;;;2.38;1.50;;;;;;;-5.23;73.37;98083.34;5006361;28;20100;-80
2022/01/17 01:09:39;;;;;;;7.57;2.25;;;;;;;-5.36;73.82;98061.69;5013232;28;20057;-79
2022/01/17 01:12:06;;;;;;;4.95;1.40;;;;;;;-5.34;74.09;98061.75;5012226;28;20056;-81
2022/01/17 01:14:33;;;;;;;4.22;1.65;;;;;;;-5.35;74.25;98055.78;5013221;28;20058;-79
2022/01/17 01:17:07;;;;;;;2.78;1.55;;;;;;;-5.36;73.93;98056.59;5013698;28;20061;-78
2022/01/17 01:19:41;;;;;;;5.18;1.92;;;;;;;-5.29;74.40;98052.63;5012862;28;20050;-80
2022/01/17 01:27:40;;;;;;;5.60;2.08;;;;;;;-5.24;73.59;98029.88;5012771;28;20085;-80
2022/01/17 01:27:53;;;;;;;9.10;2.38;;;;;;;-5.01;73.36;98033.22;5012184;28;20046;-79
2022/01/17 01:30:22;;;;;;;9.82;2.85;;;;;;;-4.95;73.29;98023.25;5011811;28;20466;-80
2022/01/17 01:32:53;;;;;;;8.15;3.33;;;;;;;-4.92;73.02;98018.28;5013062;28;20049;-81
2022/01/17 01:35:23;;;;;;;9.63;2.90;;;;;;;-4.87;72.95;98003.16;5013405;28;20049;-80
2022/01/17 01:37:50;;;;;;;7.60;3.00;;;;;;;-5.13;72.73;97980.19;5013029;28;20053;-82
2022/01/17 01:40:19;;;;;;;5.68;2.70;;;;;;;-4.98;72.79;97990.03;5012782;28;20297;-80
2022/01/17 01:42:48;;;;;;;9.90;3.30;;;;;;;-5.09;72.93;97984.59;5012611;28;20590;-79
2022/01/17 01:45:15;;;;;;;14.82;4.88;;;;;;;-4.99;72.76;97998.47;5012800;28;20065;-79
2022/01/17 01:47:42;;;;;;;18.65;5.13;;;;;;;-4.94;72.40;97996.97;5012683;28;20461;-83
2022/01/17 01:50:11;;;;;;;14.82;4.32;;;;;;;-4.96;72.70;97996.06;5013787;28;20092;-81
2022/01/17 01:52:41;;;;;;;18.15;4.53;;;;;;;-4.92;72.67;97985.16;5012597;28;20054;-80
2022/01/17 01:55:11;;;;;;;18.23;4.75;;;;;;;-4.96;72.29;97980.78;5012756;28;20058;-80
2022/01/17 01:57:41;;;;;;;16.40;4.65;;;;;;;-4.82;72.16;97976.13;5012761;28;20054;-82
2022/01/17 02:00:09;;;;;;;;;;;;;;;-4.85;72.11;97970.97;5014878;28;20072;-80
2022/01/17 02:02:36;;;;;;;11.02;3.70;;;;;;;-4.82;72.27;97959.19;5016529;28;19925;-79
2022/01/17 02:05:04;;;;;;;8.18;3.05;;;;;;;-4.72;72.04;97954.41;4996961;28;20061;-80
2022/01/17 02:07:31;;;;;;;7.97;2.33;;;;;;;-4.70;71.76;97938.34;5015141;28;20062;-80
2022/01/17 02:09:59;;;;;;;7.97;2.20;;;;;;;-4.55;71.87;97950.72;5014083;28;20188;-81
2022/01/17 02:12:28;;;;;;;9.88;3.60;;;;;;;-4.48;71.83;97927.16;5012687;28;20153;-81
2022/01/17 02:14:56;;;;;;;5.55;1.60;;;;;;;-4.33;71.67;97922.53;5017529;28;20054;-79
2022/01/17 02:17:24;;;;;;;6.28;1.98;;;;;;;-4.21;71.66;97921.19;5017982;28;20077;-82
2022/01/17 02:19:57;;;;;;;6.78;1.92;;;;;;;-4.12;70.75;97924.00;5029320;28;20074;-79
2022/01/17 02:22:24;;;;;;;5.93;1.75;;;;;;;-4.04;70.64;97930.22;5026127;28;20068;-79
2022/01/17 02:24:50;;;;;;;5.00;1.98;;;;;;;-4.01;70.59;97909.03;4994344;28;20054;-79
2022/01/17 02:27:17;;;;;;;5.38;1.52;;;;;;;-3.93;70.28;97907.56;5016648;28;20054;-80
2022/01/17 02:29:44;;;;;;;4.50;1.33;;;;;;;-3.87;70.30;97896.66;5016142;28;20053;-79
2022/01/17 02:32:11;;;;;;;5.50;1.30;;;;;;;-3.84;70.41;97897.63;5016446;28;20522;-78
2022/01/17 02:34:40;;;;;;;3.17;1.50;;;;;;;-3.82;70.14;97892.59;5015598;28;20074;-79
2022/01/17 02:37:08;;;;;;;3.53;1.45;;;;;;;-3.77;70.18;97875.69;5015186;28;20149;-79
2022/01/17 02:39:35;;;;;;;4.95;1.42;;;;;;;-3.74;69.86;97866.47;5015566;28;20107;-79
2022/01/17 02:42:04;;;;;;;2.25;0.98;;;;;;;-3.69;70.09;97879.34;5008852;28;20511;-79
2022/01/17 02:44:32;;;;;;;5.30;1.70;;;;;;;-3.71;69.67;97865.66;5021747;28;20046;-78
2022/01/17 02:47:00;;;;;;;1.80;1.27;;;;;;;-3.83;69.72;97837.25;5024122;28;20080;-79
2022/01/17 02:49:27;;;;;;;3.22;1.48;;;;;;;-3.70;70.07;97859.72;5024465;28;20061;-80
2022/01/17 02:51:54;;;;;;;6.13;2.40;;;;;;;-3.69;69.48;97848.72;5025178;28;20108;-79
2022/01/17 02:54:21;;;;;;;4.15;1.25;;;;;;;-3.68;69.65;97834.25;5024781;28;20050;-78
2022/01/17 02:56:48;;;;;;;3.17;1.15;;;;;;;-3.68;69.31;97811.28;5021977;28;20511;-82
2022/01/17 02:59:15;;;;;;;2.60;1.40;;;;;;;-3.66;69.01;97822.41;5015208;28;20566;-80
2022/01/17 03:01:42;;;;;;;4.72;1.60;;;;;;;-3.68;69.49;97822.34;5015303;28;20061;-81
2022/01/17 03:04:09;;;;;;;2.00;1.40;;;;;;;-3.83;68.97;97789.66;5014898;28;20385;-78
2022/01/17 03:06:36;;;;;;;4.13;1.45;;;;;;;-3.67;69.08;97800.28;5014759;28;20503;-79
2022/01/17 03:09:03;;;;;;;3.55;1.45;;;;;;;-3.64;68.94;97798.66;5014867;28;20081;-81
2022/01/17 03:11:30;;;;;;;3.58;1.17;;;;;;;-3.59;68.91;97792.00;5014965;28;20057;-82
2022/01/17 03:13:58;;;;;;;3.78;1.27;;;;;;;-3.58;68.77;97787.75;5015170;28;20061;-81
2022/01/17 03:16:30;;;;;;;1.77;1.00;;;;;;;-3.55;69.06;97782.72;5015346;28;20053;-80
2022/01/17 03:18:58;;;;;;;9.05;2.10;;;;;;;-3.48;68.43;97773.53;4997611;28;20495;-82
2022/01/17 03:21:27;;;;;;;5.75;1.60;;;;;;;-3.43;68.25;97777.06;5014272;28;20594;-79
2022/01/17 03:23:54;;;;;;;6.95;1.40;;;;;;;-3.57;68.26;97739.31;5014264;28;20142;-80
2022/01/17 03:26:21;;;;;;;2.80;1.23;;;;;;;-3.55;68.26;97747.88;5014468;28;20085;-81
2022/01/17 03:28:48;;;;;;;2.78;1.17;;;;;;;-3.61;68.64;97745.16;5013966;28;20050;-82
2022/01/17 03:31:15;;;;;;;5.75;1.30;;;;;;;-3.68;69.00;97743.25;5014513;28;20062;-79
2022/01/17 03:33:42;;;;;;;1.85;1.20;;;;;;;-3.73;68.76;97739.72;5014436;28;20408;-81
2022/01/17 03:36:09;;;;;;;2.92;1.30;;;;;;;-3.70;68.77;97750.00;5014433;28;20049;-83
2022/01/17 03:38:37;;;;;;;2.75;1.50;;;;;;;-3.72;68.69;97731.25;5015620;28;20053;-80
2022/01/17 03:41:05;;;;;;;3.53;1.83;;;;;;;-3.69;68.67;97740.69;5014682;28;20072;-82
2022/01/17 03:43:33;;;;;;;4.10;1.60;;;;;;;-3.68;68.67;97735.59;5014010;28;20108;-82
2022/01/17 03:46:00;;;;;;;5.63;1.85;;;;;;;-3.67;68.32;97723.72;5013976;28;20080;-82
2022/01/17 03:48:29;;;;;;;7.20;1.70;;;;;;;-3.65;68.33;97728.03;5013205;28;20508;-80
2022/01/17 03:50:58;;;;;;;2.70;1.45;;;;;;;-3.63;68.34;97725.53;5013995;28;20053;-81
2022/01/17 03:53:26;;;;;;;7.10;2.00;;;;;;;-3.78;68.32;97693.69;5014173;28;20054;-83
2022/01/17 03:55:56;;;;;;;5.85;1.60;;;;;;;-3.67;68.28;97704.16;5003431;28;20292;-82
2022/01/17 03:58:28;;;;;;;6.28;1.90;;;;;;;-3.58;68.33;97709.50;5014287;28;20076;-79
2022/01/17 04:00:57;;;;;;;7.00;1.70;;;;;;;-3.66;67.54;97692.25;4997357;28;20068;-80
2022/01/17 04:03:26;;;;;;;4.03;1.52;;;;;;;-3.58;67.65;97703.53;5014442;28;20049;-80
2022/01/17 04:05:53;;;;;;;5.82;1.60;;;;;;;-3.57;67.62;97702.69;5016448;28;20054;-82
2022/01/17 04:08:21;;;;;;;4.05;2.00;;;;;;;-3.55;67.62;97666.19;5013818;28;20480;-79
2022/01/17 04:10:49;;;;;;;7.18;1.55;;;;;;;-3.48;67.48;97686.72;5026608;28;20049;-78
2022/01/17 04:13:16;;;;;;;4.45;1.80;;;;;;;-3.48;67.57;97664.63;5013889;28;20064;-81
2022/01/17 04:15:43;;;;;;;5.25;1.92;;;;;;;-3.54;67.34;97651.72;5013864;28;20072;-79
2022/01/17 04:18:11;;;;;;;2.22;1.00;;;;;;;-3.56;67.32;97631.25;5010149;28;20494;-82
2022/01/17 04:20:45;;;;;;;6.82;1.90;;;;;;;-3.66;67.48;97626.75;4983934;28;20545;-83
2022/01/17 04:23:14;;;;;;;5.17;1.60;;;;;;;-3.52;67.38;97647.53;5012859;28;20048;-82
2022/01/17 04:25:42;;;;;;;6.25;1.88;;;;;;;-3.58;67.04;97634.63;5008369;28;20297;-80
2022/01/17 04:28:10;;;;;;;5.78;1.85;;;;;;;-3.52;67.29;97638.16;5013515;28;20128;-81
2022/01/17 04:30:39;;;;;;;3.20;1.67;;;;;;;-3.47;67.17;97637.41;5013498;28;20053;-80
2022/01/17 04:33:06;;;;;;;8.45;2.20;;;;;;;-3.40;66.99;97634.16;5011585;28;20653;-83
2022/01/17 04:35:35;;;;;;;2.50;1.42;;;;;;;-3.43;66.91;97617.09;5012387;28;20064;-80
2022/01/17 04:38:08;;;;;;;2.25;1.23;;;;;;;-3.43;67.03;97614.53;5011468;28;20054;-83
2022/01/17 04:40:38;;;;;;;5.28;2.00;;;;;;;-3.52;66.96;97587.13;4998307;28;20057;-82
2022/01/17 04:43:16;;;;;;;4.95;1.88;;;;;;;-3.41;66.75;97605.22;4999274;28;20058;-80
2022/01/17 04:45:45;;;;;;;4.38;1.80;;;;;;;-3.43;66.93;97608.59;5011617;28;20108;-82
2022/01/17 04:48:13;;;;;;;6.38;1.63;;;;;;;-3.57;67.05;97580.19;4999677;28;20496;-82
2022/01/17 04:50:40;;;;;;;4.07;1.65;;;;;;;-3.39;66.92;97605.28;5011660;28;20057;-83
2022/01/17 04:53:08;;;;;;;3.47;1.83;;;;;;;-3.39;66.70;97607.81;5011631;28;20049;-80
2022/01/17 04:55:36;;;;;;;4.28;1.85;;;;;;;-3.39;66.70;97598.47;5011544;28;20445;-81
2022/01/17 04:58:04;;;;;;;6.70;1.55;;;;;;;-3.50;66.50;97577.81;5009957;28;20081;-83
2022/01/17 05:00:31;;;;;;;5.07;2.03;;;;;;;-3.35;66.74;97581.53;5012217;28;20420;-84
2022/01/17 05:02:58;;;;;;;3.78;1.52;;;;;;;-3.35;66.44;97573.88;5013013;28;20522;-82
2022/01/17 05:05:25;;;;;;;4.18;1.55;;;;;;;-3.41;66.82;97564.38;4995915;28;20049;-81
2022/01/17 05:07:52;;;;;;;5.05;1.88;;;;;;;-3.41;66.56;97551.63;5013216;28;20144;-82
2022/01/17 05:10:21;;;;;;;5.38;2.00;;;;;;;-3.40;66.72;97570.34;5013264;28;20088;-81
2022/01/17 05:12:48;;;;;;;5.22;1.80;;;;;;;-3.54;66.54;97553.03;5013243;28;20508;-81
2022/01/17 05:15:46;;;;;;;6.20;2.13;;;;;;;-3.48;66.82;97552.31;5012816;28;20643;-81
2022/01/17 05:20:39;;;;;;;9.63;2.80;;;;;;;-3.36;66.67;97546.59;5013453;28;20049;-80
2022/01/17 05:23:06;;;;;;;9.23;3.08;;;;;;;-3.26;66.50;97538.31;5012901;28;20053;-80
2022/01/17 05:25:35;;;;;;;5.30;2.45;;;;;;;-3.25;65.96;97523.84;5012690;28;20058;-80
2022/01/17 05:28:06;;;;;;;8.65;2.25;;;;;;;-3.28;66.22;97519.56;5012496;28;20479;-82
2022/01/17 05:30:34;;;;;;;5.93;1.90;;;;;;;-3.29;66.30;97497.41;5014647;28;20104;-81
2022/01/17 05:33:01;;;;;;;5.30;1.98;;;;;;;-3.28;66.51;97494.00;4995773;28;20049;-78
2022/01/17 05:35:28;;;;;;;4.32;2.08;;;;;;;-3.27;66.34;97497.41;5013250;28;20054;-79
2022/01/17 05:37:55;;;;;;;5.70;2.22;;;;;;;-3.20;65.97;97510.34;5012645;28;20112;-82
2022/01/17 05:40:22;;;;;;;8.13;1.92;;;;;;;-3.56;66.31;97439.00;5013280;28;20077;-81
2022/01/17 05:42:49;;;;;;;5.65;1.98;;;;;;;-3.22;66.55;97493.28;4996356;28;20084;-80
2022/01/17 05:45:17;;;;;;;6.72;2.50;;;;;;;-3.28;66.29;97508.47;5015009;28;20053;-80
2022/01/17 05:47:45;;;;;;;6.35;2.00;;;;;;;-3.31;66.63;97504.19;5016963;28;20104;-80
2022/01/17 05:50:13;;;;;;;7.22;2.25;;;;;;;-3.33;67.06;97490.53;5017178;28;20057;-79
2022/01/17 05:52:41;;;;;;;6.45;2.08;;;;;;;-3.42;67.24;97477.53;5001555;28;20109;-79
2022/01/17 05:55:10;;;;;;;7.75;2.58;;;;;;;-3.35;67.30;97472.59;5008449;28;20046;-82
2022/01/17 05:57:37;;;;;;;4.65;2.22;;;;;;;-3.33;66.80;97463.28;5000512;28;20058;-79
2022/01/17 06:00:07;;;;;;;5.80;2.75;;;;;;;-3.31;67.48;97451.41;5017483;28;20416;-82
2022/01/17 06:02:34;;;;;;;9.00;2.92;;;;;;;-3.40;67.38;97424.84;5017516;28;20060;-81
2022/01/17 06:05:01;;;;;;;7.38;2.45;;;;;;;-3.36;67.38;97431.72;5017507;28;20053;-83
2022/01/17 06:07:29;;;;;;;9.88;2.50;;;;;;;-3.28;68.18;97431.88;5000332;28;20168;-82
2022/01/17 06:09:56;;;;;;;7.80;2.80;;;;;;;-3.28;68.00;97408.91;5016601;28;20066;-82
2022/01/17 06:12:23;;;;;;;6.50;2.30;;;;;;;-3.35;68.00;97375.59;5017836;28;20049;-79
2022/01/17 06:14:50;;;;;;;9.75;2.50;;;;;;;-3.36;68.24;97381.50;5020150;28;20054;-81
2022/01/17 06:17:17;;;;;;;9.88;2.67;;;;;;;-3.33;68.32;97379.03;5016095;28;20054;-80
2022/01/17 06:19:44;;;;;;;9.13;2.78;;;;;;;-3.33;68.64;97435.19;5016126;28;20057;-82
2022/01/17 06:22:12;;;;;;;8.57;2.45;;;;;;;-3.33;68.81;97440.31;5017467;28;20057;-80
2022/01/17 06:24:38;;;;;;;8.02;2.83;;;;;;;-3.27;68.75;97467.63;5017364;28;20066;-83
2022/01/17 06:27:05;;;;;;;9.60;2.50;;;;;;;-3.21;68.48;97529.03;5017804;28;20672;-81
2022/01/17 06:29:32;;;;;;;7.60;2.88;;;;;;;-3.26;68.69;97540.03;5016483;28;20054;-80
2022/01/17 06:32:00;;;;;;;6.20;2.70;;;;;;;-3.17;68.50;97541.06;5016392;28;20053;-80
2022/01/17 06:34:48;;;;;;;5.75;2.60;;;;;;;-3.37;68.94;97517.66;5016195;28;20072;-81
2022/01/17 06:37:15;;;;;;;7.75;2.47;;;;;;;-3.35;69.07;97497.28;5016236;28;20208;-82
2022/01/17 06:39:43;;;;;;;8.15;2.88;;;;;;;-3.33;69.36;97449.66;5016477;28;20132;-80
2022/01/17 06:42:10;;;;;;;9.57;2.80;;;;;;;-3.30;69.43;97431.84;5016058;28;20081;-80
2022/01/17 06:44:37;;;;;;;9.23;2.55;;;;;;;-3.36;69.48;97401.94;5013486;28;20045;-80
2022/01/17 06:47:04;;;;;;;6.35;2.83;;;;;;;-3.46;69.31;97376.22;5015985;28;20097;-81
2022/01/17 06:49:32;;;;;;;6.07;2.33;;;;;;;-3.50;69.34;97370.22;5015847;28;20508;-81
2022/01/17 06:51:59;;;;;;;6.20;2.58;;;;;;;-3.48;69.80;97383.88;5015884;28;20069;-83
2022/01/17 06:54:26;;;;;;;7.18;2.63;;;;;;;-3.62;70.20;97336.78;4996123;28;20096;-82
2022/01/17 06:56:53;;;;;;;5.97;2.70;;;;;;;-3.45;70.17;97377.94;5012172;28;20152;-83
2022/01/17 06:59:20;;;;;;;6.45;2.80;;;;;;;-3.52;70.40;97393.13;5015989;28;20582;-80
2022/01/17 07:01:47;;;;;;;4.93;2.78;;;;;;;-3.42;70.52;97389.09;5015457;28;20124;-79
2022/01/17 07:04:14;;;;;;;5.32;2.00;;;;;;;-3.35;70.46;97377.28;5015423;28;20507;-81
2022/01/17 07:06:41;;;;;;;7.03;2.97;;;;;;;-3.35;70.56;97370.50;5030238;28;20125;-80
2022/01/17 07:09:11;;;;;;;7.65;3.25;;;;;;;-3.26;70.35;97391.91;5034140;28;20117;-80
2022/01/17 07:11:39;;;;;;;8.73;3.10;;;;;;;-3.22;70.26;97371.56;5036903;28;20068;-80
2022/01/17 07:14:08;;;;;;;7.43;3.28;;;;;;;-3.21;70.14;97377.53;5022739;28;20058;-85
2022/01/17 07:16:37;;;;;;;;;;;;;;;-3.28;69.96;97365.50;5020364;28;20454;-81
2022/01/17 07:19:04;;;;;;;8.38;2.85;;;;;;;-3.26;69.67;97353.63;5000121;28;20011;-81
2022/01/17 07:21:32;;;;;;;3.80;2.60;;;;;;;-3.22;70.32;97361.34;5018529;28;20579;-80
2022/01/17 07:24:00;;;;;;;8.15;3.00;;;;;;;-3.18;70.46;97364.84;4999599;28;20053;-80
2022/01/17 07:26:27;;;;;;;5.90;2.53;;;;;;;-3.11;70.28;97364.09;5023207;28;20165;-81
2022/01/17 07:28:55;;;;;;;6.22;2.63;;;;;;;-3.05;70.67;97343.78;5025113;28;20057;-81
2022/01/17 07:31:22;;;;;;;6.35;2.97;;;;;;;-3.01;70.40;97340.44;5024439;28;20081;-81
2022/01/17 07:33:49;;;;;;;5.68;3.47;;;;;;;-2.96;70.06;97345.63;4988944;28;20046;-82
2022/01/17 07:36:28;;;;;;;9.70;2.88;;;;;;;-2.85;69.99;97356.88;5021162;28;20058;-83
2022/01/17 07:38:57;;;;;;;5.90;2.72;;;;;;;-2.91;70.13;97346.53;5016096;28;20488;-86
2022/01/17 07:41:25;;;;;;;8.73;3.25;;;;;;;-2.84;70.12;97332.16;5029176;28;20049;-82
2022/01/17 07:43:58;;;;;;;6.15;3.00;;;;;;;-2.79;70.17;97318.63;5025484;28;20058;-82
2022/01/17 07:46:33;;;;;;;7.20;3.08;;;;;;;-2.79;70.00;97300.75;5016257;28;20060;-81
2022/01/17 07:49:10;;;;;;;6.28;2.92;;;;;;;-2.98;70.11;97265.53;5014346;28;20069;-82
2022/01/17 07:51:40;;;;;;;12.68;3.90;;;;;;;-2.86;70.70;97273.41;5020455;28;20058;-84
2022/01/17 07:54:10;;;;;;;7.90;3.35;;;;;;;-3.23;70.53;97224.28;5001402;28;20530;-85
2022/01/17 07:56:38;;;;;;;7.15;3.17;;;;;;;-2.83;70.41;97282.81;5015450;28;20116;-82
2022/01/17 07:59:07;;;;;;;7.15;3.20;;;;;;;-2.86;70.72;97259.75;5017716;28;20116;-83
2022/01/17 08:01:36;;;;;;;7.95;4.25;;;;;;;-2.83;70.77;97272.59;4997566;28;20534;-83
2022/01/17 08:04:04;;;;;;;5.88;2.80;;;;;;;-2.62;70.87;97282.25;5013166;28;20054;-81
2022/01/17 08:06:36;;;;;;;6.88;2.42;;;;;;;-2.71;70.55;97248.06;5014372;28;20156;-83
2022/01/17 08:09:13;;;;;;;8.35;3.40;;;;;;;-2.73;70.49;97249.75;4995908;28;20455;-82
2022/01/17 08:12:01;;;;;;;9.18;3.72;;;;;;;-2.78;70.62;97238.56;4996407;28;20404;-82
2022/01/17 08:14:28;;;;;;;9.20;3.72;;;;;;;-2.69;70.99;97279.63;5011677;28;20061;-82
2022/01/17 08:16:55;;;;;;;7.43;3.60;;;;;;;-2.72;71.23;97254.00;5014969;28;20104;-83
2022/01/17 08:19:24;;;;;;;9.57;3.85;;;;;;;-2.68;71.12;97258.31;5016473;28;20054;-82
2022/01/17 08:21:58;;;;;;;7.45;3.42;;;;;;;-2.66;71.19;97244.72;5020530;28;20444;-83
2022/01/17 08:24:25;;;;;;;7.13;3.42;;;;;;;-2.79;71.47;97269.25;5018617;28;20100;-84
2022/01/17 08:26:52;;;;;;;10.23;3.60;;;;;;;-2.67;71.93;97269.38;5021182;28;20050;-86
2022/01/17 08:29:20;;;;;;;9.82;3.67;;;;;;;-2.73;71.10;97249.75;4977859;28;20058;-85
2022/01/17 08:31:48;;;;;;;9.27;4.07;;;;;;;-2.75;71.45;97261.63;5009108;28;20049;-86
2022/01/17 08:34:17;;;;;;;8.30;3.45;;;;;;;-2.68;71.53;97240.41;5003370;28;20046;-82
2022/01/17 08:36:48;;;;;;;9.43;3.72;;;;;;;-2.70;71.28;97216.53;5020114;28;20053;-82
2022/01/17 08:39:14;;;;;;;;;;;;;;;-2.69;71.15;97237.84;5015907;28;20122;-84
2022/01/17 08:41:42;;;;;;;7.60;3.72;;;;;;;-2.67;71.70;97241.28;5014854;28;19948;-82
2022/01/17 08:44:12;;;;;;;9.43;3.72;;;;;;;-2.78;71.54;97217.28;5015444;28;20049;-84
2022/01/17 08:46:42;;;;;;;8.52;3.58;;;;;;;-2.59;71.89;97228.63;4996443;28;20511;-86
2022/01/17 08:49:09;;;;;;;6.38;2.90;;;;;;;-2.55;71.38;97243.16;5004082;28;20534;-84
2022/01/17 08:51:37;;;;;;;8.32;3.45;;;;;;;-2.60;71.86;97216.66;5015941;28;20057;-84
2022/01/17 08:54:05;;;;;;;7.47;3.10;;;;;;;-2.62;72.35;97228.59;5014541;28;20064;-83
2022/01/17 08:56:32;;;;;;;7.43;3.15;;;;;;;-2.68;72.52;97230.19;5004888;28;20133;-85
2022/01/17 08:59:01;;;;;;;7.90;3.90;;;;;;;-2.64;72.61;97220.03;4993210;28;20064;-83
2022/01/17 09:01:29;;;;;;;8.10;3.40;;;;;;;-2.66;72.64;97212.34;5013204;28;20054;-80
2022/01/17 09:03:56;;;;;;;12.43;4.28;;;;;;;-2.69;72.70;97197.84;5012983;28;20056;-86
2022/01/17 09:06:24;;;;;;;8.38;3.63;;;;;;;-2.56;72.82;97205.63;5013822;28;20077;-86
2022/01/17 09:08:50;;;;;;;10.95;3.42;;;;;;;-2.52;72.89;97222.72;4997576;28;20103;-84
2022/01/17 09:11:18;;;;;;;10.27;3.75;;;;;;;-2.44;72.86;97205.78;5013886;28;20054;-84
2022/01/17 09:13:45;;;;;;;9.80;4.25;;;;;;;-2.52;72.34;97192.06;5019056;28;20060;-84
2022/01/17 09:16:12;;;;;;;9.93;4.63;;;;;;;-2.44;72.61;97210.06;5013300;28;20463;-84
2022/01/17 09:18:39;;;;;;;13.32;4.50;;;;;;;-2.51;72.13;97201.47;5012870;28;20061;-85
2022/01/17 09:21:06;;;;;;;8.82;3.95;;;;;;;-2.50;72.04;97198.03;5015690;28;20404;-79
2022/01/17 09:23:33;;;;;;;8.75;4.22;;;;;;;-2.51;72.50;97181.00;4996844;28;20076;-82
2022/01/17 09:26:02;;;;;;;11.90;3.95;;;;;;;-2.54;72.08;97173.28;5013126;28;20389;-84
2022/01/17 09:28:29;;;;;;;6.55;3.70;;;;;;;-2.54;71.79;97158.81;5013086;28;20148;-82
2022/01/17 09:30:56;;;;;;;10.52;3.20;;;;;;;-2.35;71.63;97189.69;5011782;28;20054;-83
2022/01/17 09:33:23;;;;;;;7.97;3.67;;;;;;;-2.43;71.41;97181.97;5013370;28;20136;-83
2022/01/17 09:35:50;;;;;;;10.00;3.80;;;;;;;-2.42;71.14;97168.31;5013086;28;20057;-83
2022/01/17 09:38:18;;;;;;;8.27;4.03;;;;;;;-2.48;71.11;97163.13;4996463;28;20054;-84
2022/01/17 09:40:45;;;;;;;8.85;3.90;;;;;;;-2.53;71.19;97162.22;5013108;28;20064;-83
2022/01/17 09:43:34;;;;;;;7.15;3.90;;;;;;;-2.65;71.09;97154.41;5015077;28;20042;-84
2022/01/17 09:46:02;;;;;;;6.82;3.35;;;;;;;-2.66;71.34;97153.56;5014092;28;20077;-83
2022/01/17 09:48:35;;;;;;;12.60;4.53;;;;;;;-2.60;71.32;97160.44;5016644;28;20149;-81
2022/01/17 09:51:41;;;;;;;10.73;5.25;;;;;;;-2.53;71.00;97140.09;5016473;28;20068;-82
2022/01/17 09:54:03;;;;;;;7.43;3.65;;;;;;;-2.62;70.84;97139.97;5015078;28;20073;-84
2022/01/17 09:56:31;;;;;;;10.02;4.57;;;;;;;-2.55;71.15;97163.91;5016117;28;20559;-86
2022/01/17 09:58:59;;;;;;;11.02;4.28;;;;;;;-2.52;71.12;97138.38;5031659;28;20041;-83
2022/01/17 10:01:27;;;;;;;14.35;5.40;;;;;;;-2.47;71.17;97140.16;5037351;28;20065;-84
2022/01/17 10:03:57;;;;;;;7.72;4.55;;;;;;;-2.42;70.85;97121.44;5036800;28;20057;-86
2022/01/17 10:06:24;;;;;;;10.20;4.13;;;;;;;-2.40;70.27;97115.50;5037361;28;20038;-86
2022/01/17 10:09:09;;;;;;;12.18;5.22;;;;;;;-2.38;70.53;97134.28;5036811;28;20038;-84
2022/01/17 10:12:28;;;;;;;12.23;5.32;;;;;;;-2.33;70.17;97117.28;5036646;28;20030;-84
2022/01/17 10:15:00;;;;;;;12.45;4.72;;;;;;;-2.33;70.64;97112.16;5033977;28;20085;-85
2022/01/17 10:17:46;;;;;;;13.02;5.13;;;;;;;-2.42;70.28;97114.63;5035121;28;20058;-86
2022/01/17 10:20:17;;;;;;;10.90;3.95;;;;;;;-2.42;70.48;97096.72;5036214;28;20049;-86
2022/01/17 10:22:53;;;;;;;;;;;;;;;-2.49;70.74;97100.09;5052905;28;20113;-88
2022/01/17 10:28:38;;;;;;;14.23;5.13;;;;;;;-2.49;71.30;97116.28;5037157;28;20069;-85
2022/01/17 10:36:55;;;;;;;12.10;6.20;;;;;;;-2.36;71.40;97121.53;5025248;28;20080;-85
2022/01/17 10:39:22;;;;;;;13.45;5.85;;;;;;;-2.23;71.35;97102.91;5039985;28;20057;-85
2022/01/17 10:41:49;;;;;;;12.63;5.28;;;;;;;-2.20;71.12;97096.94;5040064;28;20050;-84
2022/01/17 10:44:37;;;;;;;14.50;5.88;;;;;;;-2.36;71.25;97088.28;5020044;28;20038;-85
2022/01/17 10:47:26;;;;;;;13.82;6.00;;;;;;;-2.34;70.92;97069.56;5028699;28;20050;-86
2022/01/17 10:49:55;;;;;;;15.88;6.80;;;;;;;-2.33;71.17;97063.56;5033800;28;20050;-86
2022/01/17 10:52:37;;;;;;;11.63;5.38;;;;;;;-2.23;71.00;97082.44;5033611;28;20058;-88
2022/01/17 10:55:10;;;;;;;16.67;7.43;;;;;;;-2.25;71.66;97079.00;5017176;28;20546;-86
2022/01/17 10:57:40;;;;;;;16.48;6.35;;;;;;;-2.33;71.72;97065.28;4999210;28;20495;-85
2022/01/17 11:00:11;;;;;;;16.67;7.10;;;;;;;-2.19;71.75;97071.41;4998267;28;20522;-86
2022/01/17 11:02:42;;;;;;;14.38;6.28;;;;;;;-2.12;71.63;97085.09;5015690;28;20082;-83
2022/01/17 11:05:10;;;;;;;;;;;;;;;-2.22;71.91;97073.06;4999618;28;20076;-81
2022/01/17 11:07:43;;;;;;;17.73;6.25;;;;;;;-2.22;72.65;97073.91;5009204;28;20385;-84
2022/01/17 11:10:25;;;;;;;13.80;6.30;;;;;;;-2.13;72.39;97081.69;5018437;28;20100;-84
2022/01/17 11:12:54;;;;;;;14.70;6.85;;;;;;;-2.08;72.12;97068.94;5018607;28;20056;-84
2022/01/17 11:15:23;;;;;;;15.47;6.73;;;;;;;-2.09;72.25;97057.84;5026978;28;20056;-82
2022/01/17 11:17:53;;;;;;;14.30;6.35;;;;;;;-2.06;72.10;97067.25;5027137;28;20293;-85
2022/01/17 11:20:21;;;;;;;;;;;;;;;-2.11;72.06;97062.09;5021280;28;20144;-84
2022/01/17 11:22:50;;;;;;;15.98;6.68;;;;;;;-2.11;71.90;97063.78;5017765;28;19926;-84
2022/01/17 11:25:20;;;;;;;13.02;5.70;;;;;;;-2.01;72.17;97065.56;5015548;28;20405;-84
2022/01/17 11:27:48;;;;;;;13.70;6.40;;;;;;;-2.07;71.88;97034.81;5014874;28;20133;-86
2022/01/17 11:30:16;;;;;;;16.48;6.72;;;;;;;-2.08;72.24;97033.13;4998375;28;20076;-87
2022/01/17 11:32:45;;;;;;;15.45;6.53;;;;;;;-1.94;72.26;97046.00;5014716;28;20101;-85
2022/01/17 11:35:13;;;;;;;15.63;7.03;;;;;;;-1.86;72.21;97045.22;5014923;28;20078;-83
2022/01/17 11:37:53;;;;;;;15.02;6.97;;;;;;;-1.92;71.92;97026.41;5016366;28;20073;-85
2022/01/17 11:40:27;;;;;;;12.50;6.13;;;;;;;-1.94;72.45;97039.19;5015951;28;20053;-86
2022/01/17 11:42:55;;;;;;;16.42;6.70;;;;;;;-1.93;72.67;97037.50;5020281;28;20504;-87
2022/01/17 11:45:22;;;;;;;18.35;7.50;;;;;;;-1.83;72.73;97026.47;5022087;28;20049;-82
2022/01/17 11:47:49;;;;;;;16.17;6.70;;;;;;;-1.88;72.44;97029.00;5018212;28;20149;-85
2022/01/17 11:50:33;;;;;;;16.52;7.10;;;;;;;-1.84;72.33;97014.53;5019800;28;20056;-87
2022/01/17 11:53:27;;;;;;;17.60;6.97;;;;;;;-1.81;72.39;97006.00;5003308;28;20046;-87
2022/01/17 11:55:54;;;;;;;15.90;7.18;;;;;;;-1.95;72.63;96986.31;5005620;28;20056;-86
2022/01/17 11:58:37;;;;;;;14.20;6.75;;;;;;;-2.11;72.77;96956.34;5016241;28;20073;-86